sensor_id;sensor_type;location;lat;lon;timestamp;P1;durP1;ratioP1;P2;durP2;ratioP2
4278;SDS011;2153;47.744;10.580;2023-02-28T00:01:45;17.30;;;7.83;;
4278;SDS011;2153;47.744;10.580;2023-02-28T00:04:12;20.80;;;8.40;;
4278;SDS011;2153;47.744;10.580;2023-02-28T00:06:39;16.77;;;7.27;;
4278;SDS011;2153;47.744;10.580;2023-02-28T00:09:08;21.90;;;8.40;;
4278;SDS011;2153;47.744;10.580;2023-02-28T00:11:34;13.63;;;6.63;;
4278;SDS011;2153;47.744;10.580;2023-02-28T00:14:02;15.90;;;7.00;;
4278;SDS011;2153;47.744;10.580;2023-02-28T00:16:29;21.70;;;8.87;;
4278;SDS011;2153;47.744;10.580;2023-02-28T00:18:56;21.60;;;8.70;;
4278;SDS011;2153;47.744;10.580;2023-02-28T00:21:22;15.67;;;7.10;;
4278;SDS011;2153;47.744;10.580;2023-02-28T00:23:49;17.23;;;8.03;;
4278;SDS011;2153;47.744;10.580;2023-02-28T00:26:17;17.07;;;7.40;;
4278;SDS011;2153;47.744;10.580;2023-02-28T00:28:44;21.40;;;9.23;;
4278;SDS011;2153;47.744;10.580;2023-02-28T00:31:11;19.10;;;8.80;;
4278;SDS011;2153;47.744;10.580;2023-02-28T00:33:38;16.80;;;8.10;;
4278;SDS011;2153;47.744;10.580;2023-02-28T00:36:05;18.70;;;8.63;;
4278;SDS011;2153;47.744;10.580;2023-02-28T00:38:33;16.17;;;7.93;;
4278;SDS011;2153;47.744;10.580;2023-02-28T00:41:00;18.90;;;8.03;;
4278;SDS011;2153;47.744;10.580;2023-02-28T00:43:31;26.10;;;8.83;;
4278;SDS011;2153;47.744;10.580;2023-02-28T00:45:58;17.50;;;8.27;;
4278;SDS011;2153;47.744;10.580;2023-02-28T00:48:25;19.90;;;9.40;;
4278;SDS011;2153;47.744;10.580;2023-02-28T00:50:52;19.43;;;9.70;;
4278;SDS011;2153;47.744;10.580;2023-02-28T00:53:19;22.77;;;9.00;;
4278;SDS011;2153;47.744;10.580;2023-02-28T00:55:47;17.33;;;8.00;;
4278;SDS011;2153;47.744;10.580;2023-02-28T00:58:14;21.60;;;9.40;;
4278;SDS011;2153;47.744;10.580;2023-02-28T01:00:42;17.80;;;7.67;;
4278;SDS011;2153;47.744;10.580;2023-02-28T01:03:14;17.57;;;8.40;;
4278;SDS011;2153;47.744;10.580;2023-02-28T01:05:42;19.20;;;8.93;;
4278;SDS011;2153;47.744;10.580;2023-02-28T01:08:09;17.00;;;8.37;;
4278;SDS011;2153;47.744;10.580;2023-02-28T01:10:35;21.50;;;8.70;;
4278;SDS011;2153;47.744;10.580;2023-02-28T01:13:03;19.73;;;8.13;;
4278;SDS011;2153;47.744;10.580;2023-02-28T01:15:30;19.43;;;8.27;;
4278;SDS011;2153;47.744;10.580;2023-02-28T01:17:59;22.00;;;9.37;;
4278;SDS011;2153;47.744;10.580;2023-02-28T01:20:25;20.77;;;9.60;;
4278;SDS011;2153;47.744;10.580;2023-02-28T01:22:52;18.97;;;8.23;;
4278;SDS011;2153;47.744;10.580;2023-02-28T01:25:19;25.30;;;8.83;;
4278;SDS011;2153;47.744;10.580;2023-02-28T01:27:46;18.60;;;7.97;;
4278;SDS011;2153;47.744;10.580;2023-02-28T01:30:12;17.80;;;7.43;;
4278;SDS011;2153;47.744;10.580;2023-02-28T01:32:39;17.73;;;7.77;;
4278;SDS011;2153;47.744;10.580;2023-02-28T01:35:08;18.00;;;8.30;;
4278;SDS011;2153;47.744;10.580;2023-02-28T01:37:34;18.93;;;8.00;;
4278;SDS011;2153;47.744;10.580;2023-02-28T01:40:01;16.37;;;7.80;;
4278;SDS011;2153;47.744;10.580;2023-02-28T01:42:28;18.17;;;8.00;;
4278;SDS011;2153;47.744;10.580;2023-02-28T01:44:57;20.20;;;8.80;;
4278;SDS011;2153;47.744;10.580;2023-02-28T01:47:30;17.67;;;8.97;;
4278;SDS011;2153;47.744;10.580;2023-02-28T01:50:01;18.73;;;8.00;;
4278;SDS011;2153;47.744;10.580;2023-02-28T01:52:32;20.23;;;8.50;;
4278;SDS011;2153;47.744;10.580;2023-02-28T01:55:00;21.77;;;9.67;;
4278;SDS011;2153;47.744;10.580;2023-02-28T01:57:31;20.00;;;8.20;;
4278;SDS011;2153;47.744;10.580;2023-02-28T02:00:04;19.63;;;8.40;;
4278;SDS011;2153;47.744;10.580;2023-02-28T02:02:34;16.40;;;7.73;;
4278;SDS011;2153;47.744;10.580;2023-02-28T02:05:04;19.70;;;9.23;;
4278;SDS011;2153;47.744;10.580;2023-02-28T02:07:35;21.23;;;9.67;;
4278;SDS011;2153;47.744;10.580;2023-02-28T02:10:05;20.50;;;8.57;;
4278;SDS011;2153;47.744;10.580;2023-02-28T02:12:42;22.93;;;10.00;;
4278;SDS011;2153;47.744;10.580;2023-02-28T02:15:28;21.40;;;10.50;;
4278;SDS011;2153;47.744;10.580;2023-02-28T02:17:59;20.63;;;10.20;;
4278;SDS011;2153;47.744;10.580;2023-02-28T02:20:53;22.77;;;8.90;;
4278;SDS011;2153;47.744;10.580;2023-02-28T02:23:48;17.80;;;8.33;;
4278;SDS011;2153;47.744;10.580;2023-02-28T02:26:44;18.40;;;8.37;;
4278;SDS011;2153;47.744;10.580;2023-02-28T02:29:49;21.27;;;9.87;;
4278;SDS011;2153;47.744;10.580;2023-02-28T02:32:41;20.00;;;8.40;;
4278;SDS011;2153;47.744;10.580;2023-02-28T02:35:17;20.20;;;8.20;;
4278;SDS011;2153;47.744;10.580;2023-02-28T02:37:50;20.97;;;9.00;;
4278;SDS011;2153;47.744;10.580;2023-02-28T02:40:23;20.10;;;9.13;;
4278;SDS011;2153;47.744;10.580;2023-02-28T02:42:55;19.67;;;8.80;;
4278;SDS011;2153;47.744;10.580;2023-02-28T02:45:28;19.90;;;8.90;;
4278;SDS011;2153;47.744;10.580;2023-02-28T02:48:00;20.00;;;9.40;;
4278;SDS011;2153;47.744;10.580;2023-02-28T02:50:31;20.53;;;9.77;;
4278;SDS011;2153;47.744;10.580;2023-02-28T02:53:01;17.70;;;9.17;;
4278;SDS011;2153;47.744;10.580;2023-02-28T02:55:29;21.10;;;9.57;;
4278;SDS011;2153;47.744;10.580;2023-02-28T02:58:01;21.13;;;9.10;;
4278;SDS011;2153;47.744;10.580;2023-02-28T03:00:31;21.73;;;9.53;;
4278;SDS011;2153;47.744;10.580;2023-02-28T03:03:01;19.27;;;8.80;;
4278;SDS011;2153;47.744;10.580;2023-02-28T03:05:32;21.50;;;8.70;;
4278;SDS011;2153;47.744;10.580;2023-02-28T03:08:05;21.90;;;9.73;;
4278;SDS011;2153;47.744;10.580;2023-02-28T03:10:34;20.90;;;10.33;;
4278;SDS011;2153;47.744;10.580;2023-02-28T03:13:10;18.63;;;9.10;;
4278;SDS011;2153;47.744;10.580;2023-02-28T03:15:50;26.07;;;10.67;;
4278;SDS011;2153;47.744;10.580;2023-02-28T03:18:25;19.27;;;8.40;;
4278;SDS011;2153;47.744;10.580;2023-02-28T03:21:01;21.57;;;9.20;;
4278;SDS011;2153;47.744;10.580;2023-02-28T03:23:38;18.67;;;9.03;;
4278;SDS011;2153;47.744;10.580;2023-02-28T03:26:12;19.73;;;8.90;;
4278;SDS011;2153;47.744;10.580;2023-02-28T03:28:51;19.43;;;9.43;;
4278;SDS011;2153;47.744;10.580;2023-02-28T03:31:26;22.17;;;9.53;;
4278;SDS011;2153;47.744;10.580;2023-02-28T03:33:58;25.87;;;10.50;;
4278;SDS011;2153;47.744;10.580;2023-02-28T03:36:30;19.10;;;8.87;;
4278;SDS011;2153;47.744;10.580;2023-02-28T03:39:07;21.83;;;9.90;;
4278;SDS011;2153;47.744;10.580;2023-02-28T03:41:36;27.60;;;10.53;;
4278;SDS011;2153;47.744;10.580;2023-02-28T03:44:09;22.90;;;10.77;;
4278;SDS011;2153;47.744;10.580;2023-02-28T03:46:41;21.90;;;10.83;;
4278;SDS011;2153;47.744;10.580;2023-02-28T03:49:14;20.07;;;10.57;;
4278;SDS011;2153;47.744;10.580;2023-02-28T03:51:45;20.53;;;9.80;;
4278;SDS011;2153;47.744;10.580;2023-02-28T03:54:15;22.40;;;10.13;;
4278;SDS011;2153;47.744;10.580;2023-02-28T03:56:48;19.83;;;9.90;;
4278;SDS011;2153;47.744;10.580;2023-02-28T03:59:20;21.83;;;9.47;;
4278;SDS011;2153;47.744;10.580;2023-02-28T04:01:52;20.50;;;9.80;;
4278;SDS011;2153;47.744;10.580;2023-02-28T04:04:20;26.50;;;11.20;;
4278;SDS011;2153;47.744;10.580;2023-02-28T04:06:50;22.73;;;10.60;;
4278;SDS011;2153;47.744;10.580;2023-02-28T04:09:18;21.70;;;9.73;;
4278;SDS011;2153;47.744;10.580;2023-02-28T04:11:45;24.60;;;9.60;;
4278;SDS011;2153;47.744;10.580;2023-02-28T04:14:16;25.57;;;10.90;;
4278;SDS011;2153;47.744;10.580;2023-02-28T04:16:43;21.00;;;10.00;;
4278;SDS011;2153;47.744;10.580;2023-02-28T04:19:11;23.70;;;12.10;;
4278;SDS011;2153;47.744;10.580;2023-02-28T04:21:40;23.07;;;10.63;;
4278;SDS011;2153;47.744;10.580;2023-02-28T04:24:10;20.77;;;9.40;;
4278;SDS011;2153;47.744;10.580;2023-02-28T04:26:39;24.43;;;9.70;;
4278;SDS011;2153;47.744;10.580;2023-02-28T04:29:08;20.60;;;9.60;;
4278;SDS011;2153;47.744;10.580;2023-02-28T04:31:36;23.10;;;10.30;;
4278;SDS011;2153;47.744;10.580;2023-02-28T04:34:03;24.43;;;11.57;;
4278;SDS011;2153;47.744;10.580;2023-02-28T04:36:30;30.57;;;12.30;;
4278;SDS011;2153;47.744;10.580;2023-02-28T04:38:57;23.90;;;11.30;;
4278;SDS011;2153;47.744;10.580;2023-02-28T04:41:25;24.60;;;11.53;;
4278;SDS011;2153;47.744;10.580;2023-02-28T04:43:51;24.97;;;11.53;;
4278;SDS011;2153;47.744;10.580;2023-02-28T04:46:18;22.47;;;10.40;;
4278;SDS011;2153;47.744;10.580;2023-02-28T04:48:45;23.70;;;11.00;;
4278;SDS011;2153;47.744;10.580;2023-02-28T04:51:13;22.90;;;10.67;;
4278;SDS011;2153;47.744;10.580;2023-02-28T04:53:41;25.77;;;11.40;;
4278;SDS011;2153;47.744;10.580;2023-02-28T04:56:10;24.93;;;11.57;;
4278;SDS011;2153;47.744;10.580;2023-02-28T04:58:40;23.67;;;11.27;;
4278;SDS011;2153;47.744;10.580;2023-02-28T05:01:07;23.17;;;10.33;;
4278;SDS011;2153;47.744;10.580;2023-02-28T05:03:43;26.87;;;13.07;;
4278;SDS011;2153;47.744;10.580;2023-02-28T05:06:10;26.30;;;10.00;;
4278;SDS011;2153;47.744;10.580;2023-02-28T05:08:38;23.17;;;10.27;;
4278;SDS011;2153;47.744;10.580;2023-02-28T05:11:06;21.70;;;11.30;;
4278;SDS011;2153;47.744;10.580;2023-02-28T05:13:39;19.87;;;9.23;;
4278;SDS011;2153;47.744;10.580;2023-02-28T05:16:06;20.80;;;9.53;;
4278;SDS011;2153;47.744;10.580;2023-02-28T05:18:33;24.60;;;12.10;;
4278;SDS011;2153;47.744;10.580;2023-02-28T05:21:00;26.90;;;12.43;;
4278;SDS011;2153;47.744;10.580;2023-02-28T05:23:27;26.37;;;12.00;;
4278;SDS011;2153;47.744;10.580;2023-02-28T05:25:54;25.33;;;12.00;;
4278;SDS011;2153;47.744;10.580;2023-02-28T05:28:21;27.83;;;14.17;;
4278;SDS011;2153;47.744;10.580;2023-02-28T05:30:50;22.80;;;10.30;;
4278;SDS011;2153;47.744;10.580;2023-02-28T05:33:16;25.00;;;12.47;;
4278;SDS011;2153;47.744;10.580;2023-02-28T05:35:43;26.37;;;12.13;;
4278;SDS011;2153;47.744;10.580;2023-02-28T05:38:10;29.67;;;12.90;;
4278;SDS011;2153;47.744;10.580;2023-02-28T05:40:37;25.77;;;11.87;;
4278;SDS011;2153;47.744;10.580;2023-02-28T05:43:04;27.53;;;13.33;;
4278;SDS011;2153;47.744;10.580;2023-02-28T05:45:31;26.10;;;12.20;;
4278;SDS011;2153;47.744;10.580;2023-02-28T05:47:59;24.87;;;11.20;;
4278;SDS011;2153;47.744;10.580;2023-02-28T05:50:26;25.57;;;11.80;;
4278;SDS011;2153;47.744;10.580;2023-02-28T05:52:52;25.57;;;11.63;;
4278;SDS011;2153;47.744;10.580;2023-02-28T05:55:19;23.00;;;10.93;;
4278;SDS011;2153;47.744;10.580;2023-02-28T05:57:46;28.30;;;11.47;;
4278;SDS011;2153;47.744;10.580;2023-02-28T06:00:13;24.80;;;11.07;;
4278;SDS011;2153;47.744;10.580;2023-02-28T06:02:42;30.10;;;12.33;;
4278;SDS011;2153;47.744;10.580;2023-02-28T06:05:11;29.17;;;13.40;;
4278;SDS011;2153;47.744;10.580;2023-02-28T06:07:40;25.57;;;12.10;;
4278;SDS011;2153;47.744;10.580;2023-02-28T06:10:07;24.83;;;11.70;;
4278;SDS011;2153;47.744;10.580;2023-02-28T06:12:35;26.57;;;11.77;;
4278;SDS011;2153;47.744;10.580;2023-02-28T06:15:03;25.97;;;11.07;;
4278;SDS011;2153;47.744;10.580;2023-02-28T06:17:30;26.13;;;11.90;;
4278;SDS011;2153;47.744;10.580;2023-02-28T06:19:56;31.80;;;11.93;;
4278;SDS011;2153;47.744;10.580;2023-02-28T06:22:24;26.13;;;12.83;;
4278;SDS011;2153;47.744;10.580;2023-02-28T06:24:51;24.30;;;12.60;;
4278;SDS011;2153;47.744;10.580;2023-02-28T06:27:19;25.30;;;12.47;;
4278;SDS011;2153;47.744;10.580;2023-02-28T06:29:47;25.70;;;12.00;;
4278;SDS011;2153;47.744;10.580;2023-02-28T06:32:14;26.60;;;11.77;;
4278;SDS011;2153;47.744;10.580;2023-02-28T06:34:40;25.13;;;12.53;;
4278;SDS011;2153;47.744;10.580;2023-02-28T06:37:07;25.70;;;12.00;;
4278;SDS011;2153;47.744;10.580;2023-02-28T06:39:35;24.90;;;13.10;;
4278;SDS011;2153;47.744;10.580;2023-02-28T06:42:02;46.13;;;14.80;;
4278;SDS011;2153;47.744;10.580;2023-02-28T06:44:29;27.73;;;13.77;;
4278;SDS011;2153;47.744;10.580;2023-02-28T06:47:00;28.50;;;14.00;;
4278;SDS011;2153;47.744;10.580;2023-02-28T06:49:27;34.57;;;15.70;;
4278;SDS011;2153;47.744;10.580;2023-02-28T06:51:54;26.00;;;13.30;;
4278;SDS011;2153;47.744;10.580;2023-02-28T06:54:21;28.63;;;11.97;;
4278;SDS011;2153;47.744;10.580;2023-02-28T06:56:49;37.20;;;14.43;;
4278;SDS011;2153;47.744;10.580;2023-02-28T06:59:15;23.83;;;10.27;;
4278;SDS011;2153;47.744;10.580;2023-02-28T07:01:42;20.83;;;9.50;;
4278;SDS011;2153;47.744;10.580;2023-02-28T07:04:09;27.80;;;13.30;;
4278;SDS011;2153;47.744;10.580;2023-02-28T07:06:36;27.47;;;13.20;;
4278;SDS011;2153;47.744;10.580;2023-02-28T07:09:02;28.80;;;13.63;;
4278;SDS011;2153;47.744;10.580;2023-02-28T07:11:30;24.83;;;12.17;;
4278;SDS011;2153;47.744;10.580;2023-02-28T07:13:58;25.00;;;12.63;;
4278;SDS011;2153;47.744;10.580;2023-02-28T07:16:25;27.50;;;11.13;;
4278;SDS011;2153;47.744;10.580;2023-02-28T07:18:52;29.57;;;12.50;;
4278;SDS011;2153;47.744;10.580;2023-02-28T07:21:19;25.93;;;10.17;;
4278;SDS011;2153;47.744;10.580;2023-02-28T07:23:46;27.67;;;13.03;;
4278;SDS011;2153;47.744;10.580;2023-02-28T07:26:13;29.60;;;13.20;;
4278;SDS011;2153;47.744;10.580;2023-02-28T07:28:42;28.17;;;13.80;;
4278;SDS011;2153;47.744;10.580;2023-02-28T07:31:10;29.67;;;14.23;;
4278;SDS011;2153;47.744;10.580;2023-02-28T07:33:38;25.10;;;11.80;;
4278;SDS011;2153;47.744;10.580;2023-02-28T07:36:07;25.17;;;13.37;;
4278;SDS011;2153;47.744;10.580;2023-02-28T07:38:39;25.37;;;12.57;;
4278;SDS011;2153;47.744;10.580;2023-02-28T07:41:05;28.20;;;13.30;;
4278;SDS011;2153;47.744;10.580;2023-02-28T07:43:33;25.83;;;11.87;;
4278;SDS011;2153;47.744;10.580;2023-02-28T07:46:01;26.70;;;12.40;;
4278;SDS011;2153;47.744;10.580;2023-02-28T07:48:30;26.33;;;12.23;;
4278;SDS011;2153;47.744;10.580;2023-02-28T07:50:57;26.20;;;12.97;;
4278;SDS011;2153;47.744;10.580;2023-02-28T07:53:25;24.63;;;11.33;;
4278;SDS011;2153;47.744;10.580;2023-02-28T07:55:54;25.03;;;9.77;;
4278;SDS011;2153;47.744;10.580;2023-02-28T07:58:21;25.73;;;12.23;;
4278;SDS011;2153;47.744;10.580;2023-02-28T08:00:48;24.90;;;12.50;;
4278;SDS011;2153;47.744;10.580;2023-02-28T08:03:15;23.60;;;10.30;;
4278;SDS011;2153;47.744;10.580;2023-02-28T08:05:43;27.43;;;13.20;;
4278;SDS011;2153;47.744;10.580;2023-02-28T08:08:10;29.70;;;13.63;;
4278;SDS011;2153;47.744;10.580;2023-02-28T08:10:37;22.33;;;10.60;;
4278;SDS011;2153;47.744;10.580;2023-02-28T08:13:03;20.77;;;8.90;;
4278;SDS011;2153;47.744;10.580;2023-02-28T08:15:30;25.23;;;11.97;;
4278;SDS011;2153;47.744;10.580;2023-02-28T08:17:57;21.43;;;8.73;;
4278;SDS011;2153;47.744;10.580;2023-02-28T08:20:24;25.10;;;12.73;;
4278;SDS011;2153;47.744;10.580;2023-02-28T08:22:53;22.47;;;10.60;;
4278;SDS011;2153;47.744;10.580;2023-02-28T08:25:20;24.00;;;11.40;;
4278;SDS011;2153;47.744;10.580;2023-02-28T08:27:47;27.80;;;12.90;;
4278;SDS011;2153;47.744;10.580;2023-02-28T08:30:14;24.77;;;10.10;;
4278;SDS011;2153;47.744;10.580;2023-02-28T08:32:41;26.37;;;11.63;;
4278;SDS011;2153;47.744;10.580;2023-02-28T08:35:08;28.17;;;12.77;;
4278;SDS011;2153;47.744;10.580;2023-02-28T08:37:35;24.03;;;12.53;;
4278;SDS011;2153;47.744;10.580;2023-02-28T08:40:03;26.03;;;10.53;;
4278;SDS011;2153;47.744;10.580;2023-02-28T08:42:31;21.10;;;9.10;;
4278;SDS011;2153;47.744;10.580;2023-02-28T08:44:58;26.73;;;13.07;;
4278;SDS011;2153;47.744;10.580;2023-02-28T08:47:25;27.70;;;13.87;;
4278;SDS011;2153;47.744;10.580;2023-02-28T08:49:51;26.93;;;12.13;;
4278;SDS011;2153;47.744;10.580;2023-02-28T08:52:18;27.70;;;13.10;;
4278;SDS011;2153;47.744;10.580;2023-02-28T08:54:45;28.70;;;12.70;;
4278;SDS011;2153;47.744;10.580;2023-02-28T08:57:13;27.43;;;13.20;;
4278;SDS011;2153;47.744;10.580;2023-02-28T08:59:40;30.63;;;13.30;;
4278;SDS011;2153;47.744;10.580;2023-02-28T09:02:08;25.97;;;12.60;;
4278;SDS011;2153;47.744;10.580;2023-02-28T09:04:35;30.27;;;12.33;;
4278;SDS011;2153;47.744;10.580;2023-02-28T09:07:02;33.83;;;14.00;;
4278;SDS011;2153;47.744;10.580;2023-02-28T09:09:28;30.27;;;12.63;;
4278;SDS011;2153;47.744;10.580;2023-02-28T09:11:55;27.20;;;11.40;;
4278;SDS011;2153;47.744;10.580;2023-02-28T09:14:23;26.00;;;12.13;;
4278;SDS011;2153;47.744;10.580;2023-02-28T09:16:50;29.23;;;12.90;;
4278;SDS011;2153;47.744;10.580;2023-02-28T09:19:17;33.13;;;12.70;;
4278;SDS011;2153;47.744;10.580;2023-02-28T09:21:43;25.33;;;10.97;;
4278;SDS011;2153;47.744;10.580;2023-02-28T09:24:10;23.77;;;10.30;;
4278;SDS011;2153;47.744;10.580;2023-02-28T09:26:39;28.17;;;11.93;;
4278;SDS011;2153;47.744;10.580;2023-02-28T09:29:06;29.03;;;11.53;;
4278;SDS011;2153;47.744;10.580;2023-02-28T09:31:34;26.83;;;12.10;;
4278;SDS011;2153;47.744;10.580;2023-02-28T09:34:00;27.77;;;13.13;;
4278;SDS011;2153;47.744;10.580;2023-02-28T09:36:27;27.17;;;11.83;;
4278;SDS011;2153;47.744;10.580;2023-02-28T09:38:55;31.30;;;14.47;;
4278;SDS011;2153;47.744;10.580;2023-02-28T09:41:23;25.90;;;12.40;;
4278;SDS011;2153;47.744;10.580;2023-02-28T09:43:53;25.97;;;12.33;;
4278;SDS011;2153;47.744;10.580;2023-02-28T09:46:27;30.97;;;12.60;;
4278;SDS011;2153;47.744;10.580;2023-02-28T09:48:58;31.77;;;13.90;;
4278;SDS011;2153;47.744;10.580;2023-02-28T09:51:30;32.37;;;13.47;;
4278;SDS011;2153;47.744;10.580;2023-02-28T09:54:16;27.07;;;12.00;;
4278;SDS011;2153;47.744;10.580;2023-02-28T09:56:47;26.70;;;13.03;;
4278;SDS011;2153;47.744;10.580;2023-02-28T09:59:21;26.00;;;12.70;;
4278;SDS011;2153;47.744;10.580;2023-02-28T10:01:59;23.67;;;11.40;;
4278;SDS011;2153;47.744;10.580;2023-02-28T10:04:39;28.10;;;12.23;;
4278;SDS011;2153;47.744;10.580;2023-02-28T10:07:15;27.13;;;12.33;;
4278;SDS011;2153;47.744;10.580;2023-02-28T10:09:49;25.70;;;12.17;;
4278;SDS011;2153;47.744;10.580;2023-02-28T10:12:19;27.13;;;12.13;;
4278;SDS011;2153;47.744;10.580;2023-02-28T10:14:46;27.57;;;11.53;;
4278;SDS011;2153;47.744;10.580;2023-02-28T10:17:18;26.37;;;13.27;;
4278;SDS011;2153;47.744;10.580;2023-02-28T10:19:51;30.30;;;13.23;;
4278;SDS011;2153;47.744;10.580;2023-02-28T10:22:24;28.37;;;14.13;;
4278;SDS011;2153;47.744;10.580;2023-02-28T10:24:55;30.10;;;12.80;;
4278;SDS011;2153;47.744;10.580;2023-02-28T10:27:25;29.07;;;13.83;;
4278;SDS011;2153;47.744;10.580;2023-02-28T10:29:55;28.63;;;12.70;;
4278;SDS011;2153;47.744;10.580;2023-02-28T10:32:25;29.73;;;13.50;;
4278;SDS011;2153;47.744;10.580;2023-02-28T10:34:55;26.60;;;12.33;;
4278;SDS011;2153;47.744;10.580;2023-02-28T10:37:25;31.97;;;14.47;;
4278;SDS011;2153;47.744;10.580;2023-02-28T10:39:52;29.00;;;15.13;;
4278;SDS011;2153;47.744;10.580;2023-02-28T10:42:20;27.37;;;11.87;;
4278;SDS011;2153;47.744;10.580;2023-02-28T10:45:01;29.90;;;14.03;;
4278;SDS011;2153;47.744;10.580;2023-02-28T10:47:33;27.07;;;12.70;;
4278;SDS011;2153;47.744;10.580;2023-02-28T10:50:03;29.07;;;13.00;;
4278;SDS011;2153;47.744;10.580;2023-02-28T10:52:33;31.37;;;14.17;;
4278;SDS011;2153;47.744;10.580;2023-02-28T10:55:14;26.47;;;13.70;;
4278;SDS011;2153;47.744;10.580;2023-02-28T10:57:45;36.33;;;15.17;;
4278;SDS011;2153;47.744;10.580;2023-02-28T11:00:14;31.10;;;15.43;;
4278;SDS011;2153;47.744;10.580;2023-02-28T11:02:43;31.67;;;15.40;;
4278;SDS011;2153;47.744;10.580;2023-02-28T11:05:23;28.63;;;13.03;;
4278;SDS011;2153;47.744;10.580;2023-02-28T11:07:55;36.37;;;14.40;;
4278;SDS011;2153;47.744;10.580;2023-02-28T11:10:26;30.77;;;15.60;;
4278;SDS011;2153;47.744;10.580;2023-02-28T11:12:59;25.57;;;13.07;;
4278;SDS011;2153;47.744;10.580;2023-02-28T11:15:27;31.97;;;16.10;;
4278;SDS011;2153;47.744;10.580;2023-02-28T11:17:56;31.73;;;15.47;;
4278;SDS011;2153;47.744;10.580;2023-02-28T11:20:28;31.17;;;14.50;;
4278;SDS011;2153;47.744;10.580;2023-02-28T11:22:57;33.13;;;16.07;;
4278;SDS011;2153;47.744;10.580;2023-02-28T11:25:25;30.33;;;15.27;;
4278;SDS011;2153;47.744;10.580;2023-02-28T11:27:55;24.33;;;10.97;;
4278;SDS011;2153;47.744;10.580;2023-02-28T11:30:27;28.83;;;13.70;;
4278;SDS011;2153;47.744;10.580;2023-02-28T11:32:56;35.90;;;12.87;;
4278;SDS011;2153;47.744;10.580;2023-02-28T11:35:24;31.20;;;14.93;;
4278;SDS011;2153;47.744;10.580;2023-02-28T11:37:56;32.47;;;16.07;;
4278;SDS011;2153;47.744;10.580;2023-02-28T11:40:25;29.93;;;14.10;;
4278;SDS011;2153;47.744;10.580;2023-02-28T11:42:59;33.33;;;16.50;;
4278;SDS011;2153;47.744;10.580;2023-02-28T11:45:38;29.40;;;14.57;;
4278;SDS011;2153;47.744;10.580;2023-02-28T11:48:17;31.47;;;15.20;;
4278;SDS011;2153;47.744;10.580;2023-02-28T11:50:57;28.13;;;14.60;;
4278;SDS011;2153;47.744;10.580;2023-02-28T11:53:35;35.73;;;15.73;;
4278;SDS011;2153;47.744;10.580;2023-02-28T11:56:18;34.27;;;16.43;;
4278;SDS011;2153;47.744;10.580;2023-02-28T11:58:53;37.00;;;17.23;;
4278;SDS011;2153;47.744;10.580;2023-02-28T12:01:36;38.03;;;18.47;;
4278;SDS011;2153;47.744;10.580;2023-02-28T12:04:15;23.07;;;10.10;;
4278;SDS011;2153;47.744;10.580;2023-02-28T12:06:54;28.53;;;13.23;;
4278;SDS011;2153;47.744;10.580;2023-02-28T12:09:30;36.97;;;15.20;;
4278;SDS011;2153;47.744;10.580;2023-02-28T12:12:07;32.97;;;15.67;;
4278;SDS011;2153;47.744;10.580;2023-02-28T12:14:50;28.10;;;12.90;;
4278;SDS011;2153;47.744;10.580;2023-02-28T12:17:32;36.70;;;15.20;;
4278;SDS011;2153;47.744;10.580;2023-02-28T12:20:16;33.90;;;16.07;;
4278;SDS011;2153;47.744;10.580;2023-02-28T12:22:52;32.40;;;14.60;;
4278;SDS011;2153;47.744;10.580;2023-02-28T12:28:20;36.73;;;15.80;;
4278;SDS011;2153;47.744;10.580;2023-02-28T12:30:51;30.37;;;14.10;;
4278;SDS011;2153;47.744;10.580;2023-02-28T12:33:22;31.90;;;16.50;;
4278;SDS011;2153;47.744;10.580;2023-02-28T12:35:55;26.07;;;12.40;;
4278;SDS011;2153;47.744;10.580;2023-02-28T12:38:26;32.10;;;15.60;;
4278;SDS011;2153;47.744;10.580;2023-02-28T12:40:55;33.53;;;15.23;;
4278;SDS011;2153;47.744;10.580;2023-02-28T12:43:27;36.10;;;16.40;;
4278;SDS011;2153;47.744;10.580;2023-02-28T12:45:59;30.57;;;14.90;;
4278;SDS011;2153;47.744;10.580;2023-02-28T12:48:31;34.53;;;16.93;;
4278;SDS011;2153;47.744;10.580;2023-02-28T12:51:03;28.40;;;12.50;;
4278;SDS011;2153;47.744;10.580;2023-02-28T12:53:35;38.53;;;16.83;;
4278;SDS011;2153;47.744;10.580;2023-02-28T12:56:13;36.07;;;17.37;;
4278;SDS011;2153;47.744;10.580;2023-02-28T12:58:43;33.70;;;16.73;;
4278;SDS011;2153;47.744;10.580;2023-02-28T13:01:20;30.67;;;16.00;;
4278;SDS011;2153;47.744;10.580;2023-02-28T13:04:14;36.73;;;17.17;;
4278;SDS011;2153;47.744;10.580;2023-02-28T13:10:08;46.13;;;19.77;;
4278;SDS011;2153;47.744;10.580;2023-02-28T13:12:36;39.63;;;21.40;;
4278;SDS011;2153;47.744;10.580;2023-02-28T13:15:16;32.17;;;15.40;;
4278;SDS011;2153;47.744;10.580;2023-02-28T13:17:49;34.00;;;15.63;;
4278;SDS011;2153;47.744;10.580;2023-02-28T13:20:18;44.83;;;16.67;;
4278;SDS011;2153;47.744;10.580;2023-02-28T13:22:46;37.90;;;17.20;;
4278;SDS011;2153;47.744;10.580;2023-02-28T13:31:32;28.47;;;13.17;;
4278;SDS011;2153;47.744;10.580;2023-02-28T13:34:19;33.00;;;15.63;;
4278;SDS011;2153;47.744;10.580;2023-02-28T13:36:46;34.47;;;15.70;;
4278;SDS011;2153;47.744;10.580;2023-02-28T13:45:25;40.37;;;17.30;;
4278;SDS011;2153;47.744;10.580;2023-02-28T13:47:56;37.23;;;16.67;;
4278;SDS011;2153;47.744;10.580;2023-02-28T13:50:27;35.70;;;17.20;;
4278;SDS011;2153;47.744;10.580;2023-02-28T13:53:12;35.10;;;16.07;;
4278;SDS011;2153;47.744;10.580;2023-02-28T13:56:00;36.73;;;16.80;;
4278;SDS011;2153;47.744;10.580;2023-02-28T14:01:28;34.70;;;16.60;;
4278;SDS011;2153;47.744;10.580;2023-02-28T14:04:12;40.23;;;19.97;;
4278;SDS011;2153;47.744;10.580;2023-02-28T14:06:53;47.20;;;20.43;;
4278;SDS011;2153;47.744;10.580;2023-02-28T14:09:23;41.83;;;19.77;;
4278;SDS011;2153;47.744;10.580;2023-02-28T14:11:52;45.70;;;23.30;;
4278;SDS011;2153;47.744;10.580;2023-02-28T14:17:21;34.47;;;17.00;;
4278;SDS011;2153;47.744;10.580;2023-02-28T14:19:48;39.17;;;19.17;;
4278;SDS011;2153;47.744;10.580;2023-02-28T14:22:19;33.80;;;16.70;;
4278;SDS011;2153;47.744;10.580;2023-02-28T14:25:07;37.00;;;17.87;;
4278;SDS011;2153;47.744;10.580;2023-02-28T14:27:38;35.73;;;18.67;;
4278;SDS011;2153;47.744;10.580;2023-02-28T14:30:19;41.87;;;20.27;;
4278;SDS011;2153;47.744;10.580;2023-02-28T14:33:23;39.80;;;18.37;;
4278;SDS011;2153;47.744;10.580;2023-02-28T14:36:01;50.13;;;19.17;;
4278;SDS011;2153;47.744;10.580;2023-02-28T14:38:40;35.20;;;17.80;;
4278;SDS011;2153;47.744;10.580;2023-02-28T14:41:15;36.77;;;18.00;;
4278;SDS011;2153;47.744;10.580;2023-02-28T14:43:50;36.20;;;18.43;;
4278;SDS011;2153;47.744;10.580;2023-02-28T14:46:20;38.70;;;17.10;;
4278;SDS011;2153;47.744;10.580;2023-02-28T14:48:48;36.60;;;18.30;;
4278;SDS011;2153;47.744;10.580;2023-02-28T14:51:19;39.67;;;18.43;;
4278;SDS011;2153;47.744;10.580;2023-02-28T14:53:48;37.40;;;18.23;;
4278;SDS011;2153;47.744;10.580;2023-02-28T14:56:23;38.90;;;18.53;;
4278;SDS011;2153;47.744;10.580;2023-02-28T14:58:52;34.50;;;17.60;;
4278;SDS011;2153;47.744;10.580;2023-02-28T15:01:23;46.23;;;24.40;;
4278;SDS011;2153;47.744;10.580;2023-02-28T15:03:58;37.43;;;19.10;;
4278;SDS011;2153;47.744;10.580;2023-02-28T15:06:26;36.10;;;18.30;;
4278;SDS011;2153;47.744;10.580;2023-02-28T15:09:14;36.90;;;17.80;;
4278;SDS011;2153;47.744;10.580;2023-02-28T15:11:44;36.10;;;17.50;;
4278;SDS011;2153;47.744;10.580;2023-02-28T15:14:14;42.67;;;22.53;;
4278;SDS011;2153;47.744;10.580;2023-02-28T15:16:45;37.60;;;16.90;;
4278;SDS011;2153;47.744;10.580;2023-02-28T15:19:19;36.50;;;17.20;;
4278;SDS011;2153;47.744;10.580;2023-02-28T15:21:50;35.77;;;17.80;;
4278;SDS011;2153;47.744;10.580;2023-02-28T15:24:24;37.30;;;18.40;;